Time;durP1;ratioP1;P1;durP2;ratioP2;P2;SDS_P1;SDS_P2;PMS_P1;PMS_P2;Temp;Humidity;BMP_temperature;BMP_pressure;BME280_temperature;BME280_humidity;BME280_pressure;Samples;Min_cycle;Max_cycle;Signal;HPM_P1;HPM_P2
2024/01/18 00:00:34;;;;;;;5.60;4.13;;;;;;;8.07;85.31;101158.16;5087052;28;20097;-86
2024/01/18 00:03:00;;;;;;;5.22;3.78;;;;;;;7.87;84.95;101112.53;5087386;28;20032;-86
2024/01/18 00:05:26;;;;;;;6.05;4.00;;;;;;;7.87;84.57;101109.94;5082151;28;20048;-86
2024/01/18 00:07:51;;;;;;;5.65;4.28;;;;;;;8.14;84.75;101162.97;5081634;28;20063;-85
2024/01/18 00:10:17;;;;;;;7.93;4.30;;;;;;;8.09;84.40;101146.16;5088449;28;20508;-85
2024/01/18 00:12:43;;;;;;;6.15;4.38;;;;;;;7.58;84.11;101059.41;5088511;28;20071;-85
2024/01/18 00:15:09;;;;;;;6.07;4.10;;;;;;;7.99;84.76;101126.41;5086220;28;20557;-86
2024/01/18 00:17:35;;;;;;;6.75;4.00;;;;;;;7.96;84.05;101113.19;5069827;28;20039;-86
2024/01/18 00:20:00;;;;;;;5.65;4.13;;;;;;;8.18;84.31;101149.38;5085105;28;20066;-86
2024/01/18 00:22:26;;;;;;;5.88;4.35;;;;;;;7.60;84.11;101052.63;5087299;28;20032;-87
2024/01/18 00:24:52;;;;;;;6.22;4.25;;;;;;;7.77;83.80;101084.06;5082727;28;20644;-87
2024/01/18 00:27:18;;;;;;;6.80;4.70;;;;;;;7.73;84.86;101076.06;5086930;28;20032;-86
2024/01/18 00:29:44;;;;;;;5.43;4.00;;;;;;;8.01;84.45;101117.00;5086546;28;20020;-87
2024/01/18 00:32:10;;;;;;;5.82;4.28;;;;;;;8.13;84.04;101146.47;5071740;28;20535;-87
2024/01/18 00:34:35;;;;;;;5.82;4.10;;;;;;;7.60;83.85;101030.91;5069665;28;20036;-87
2024/01/18 00:37:01;;;;;;;5.20;4.00;;;;;;;7.64;85.00;101044.25;5070384;28;20031;-87
2024/01/18 00:39:27;;;;;;;6.90;4.30;;;;;;;7.31;85.03;100989.09;5075950;28;20494;-87
2024/01/18 00:41:53;;;;;;;4.80;3.83;;;;;;;7.65;84.90;101052.94;5086233;28;20707;-87
2024/01/18 00:44:18;;;;;;;5.68;3.92;;;;;;;7.79;84.73;101066.88;5070493;28;20044;-86
2024/01/18 00:46:44;;;;;;;5.75;4.05;;;;;;;7.58;84.54;101029.91;5089785;28;20097;-87
2024/01/18 00:49:10;;;;;;;5.80;4.15;;;;;;;7.70;84.83;101048.97;5088157;28;20064;-86
2024/01/18 00:51:35;;;;;;;5.78;3.92;;;;;;;7.74;85.01;101051.88;5087546;28;20032;-87
2024/01/18 00:54:02;;;;;;;6.13;4.35;;;;;;;7.99;84.41;101091.69;5087282;28;20028;-87
2024/01/18 00:56:27;;;;;;;;;;;;;;;8.10;84.30;101107.22;5079161;28;20066;-87
2024/01/18 00:58:53;;;;;;;5.38;4.05;;;;;;;7.61;84.94;101028.44;5089924;28;20445;-86
2024/01/18 01:01:19;;;;;;;5.85;4.18;;;;;;;7.60;84.99;101020.50;5092020;28;20036;-86
2024/01/18 01:03:44;;;;;;;7.70;4.50;;;;;;;7.55;84.81;101002.91;5091249;28;20195;-87
2024/01/18 01:06:11;;;;;;;6.28;4.05;;;;;;;8.06;84.89;101086.09;5075325;28;20043;-86
2024/01/18 01:08:36;;;;;;;;;;;;;;;8.10;84.66;101083.81;5091241;28;20032;-86
2024/01/18 01:11:06;;;;;;;5.88;4.03;;;;;;;7.78;84.93;101036.50;5074975;28;19923;-87
2024/01/18 01:13:32;;;;;;;5.78;3.97;;;;;;;7.84;85.04;101040.44;5081563;28;20116;-86
2024/01/18 01:15:57;;;;;;;5.38;3.88;;;;;;;7.51;84.60;100989.59;5088627;28;20024;-86
2024/01/18 01:18:23;;;;;;;5.13;3.63;;;;;;;8.11;84.72;101077.84;5088502;28;20085;-87
2024/01/18 01:20:49;;;;;;;7.47;3.97;;;;;;;7.85;84.70;101034.44;5090538;28;20035;-87
2024/01/18 01:23:15;;;;;;;6.25;4.07;;;;;;;7.73;84.79;101015.41;5090481;28;20068;-87
2024/01/18 01:25:40;;;;;;;5.95;4.30;;;;;;;7.61;84.96;100991.16;5089195;28;20035;-87
2024/01/18 01:28:06;;;;;;;5.18;3.72;;;;;;;7.80;85.49;101033.22;5089837;28;20568;-86
2024/01/18 01:30:32;;;;;;;5.32;4.07;;;;;;;8.07;85.15;101061.91;5075952;28;20501;-87
2024/01/18 01:32:58;;;;;;;4.93;3.83;;;;;;;7.97;84.87;101049.97;5073646;28;20047;-85
2024/01/18 01:35:23;;;;;;;5.00;3.97;;;;;;;7.83;85.03;101024.72;5066626;28;20032;-85
2024/01/18 01:37:49;;;;;;;5.15;3.83;;;;;;;7.81;84.75;101024.63;5092050;28;20024;-86
2024/01/18 01:40:15;;;;;;;4.93;3.55;;;;;;;7.60;84.56;100987.66;5090386;28;20165;-87
2024/01/18 01:42:41;;;;;;;;;;;;;;;8.05;84.70;101066.13;5090655;28;20039;-85
2024/01/18 01:45:07;;;;;;;4.80;3.92;;;;;;;7.64;84.66;100991.34;5090566;28;19912;-86
2024/01/18 01:47:33;;;;;;;5.40;3.63;;;;;;;7.67;84.27;101002.88;5091438;28;20111;-87
2024/01/18 01:49:59;;;;;;;5.28;3.90;;;;;;;7.93;84.80;101045.34;5068574;28;20162;-86
2024/01/18 01:52:26;;;;;;;5.00;3.80;;;;;;;7.59;84.78;100974.53;5103854;28;20039;-85
2024/01/18 01:54:52;;;;;;;5.07;3.65;;;;;;;7.90;85.31;101030.44;5091919;28;20044;-84
2024/01/18 01:57:18;;;;;;;5.63;4.07;;;;;;;7.43;84.92;100949.19;5087370;28;20165;-85
2024/01/18 01:59:44;;;;;;;4.95;3.83;;;;;;;7.82;84.75;101016.00;5089876;28;20044;-86
2024/01/18 02:02:10;;;;;;;4.82;3.58;;;;;;;7.78;84.88;100997.50;5088248;28;20024;-87
2024/01/18 02:04:37;;;;;;;;;;;;;;;8.06;84.43;101040.19;5090902;28;20057;-86
2024/01/18 02:07:03;;;;;;;5.97;3.87;;;;;;;7.78;84.64;100998.41;5102869;28;19927;-88
2024/01/18 02:09:29;;;;;;;5.60;3.90;;;;;;;7.90;84.65;101029.56;5072191;28;20036;-86
2024/01/18 02:11:54;;;;;;;6.63;3.72;;;;;;;7.88;84.80;101023.34;5089412;28;20039;-87
2024/01/18 02:14:21;;;;;;;5.32;3.88;;;;;;;7.70;84.14;100983.97;5090277;28;20035;-88
2024/01/18 02:16:47;;;;;;;5.80;3.83;;;;;;;7.53;85.17;100952.56;5085083;28;20040;-84
2024/01/18 02:19:15;;;;;;;5.00;3.90;;;;;;;7.49;84.89;100944.41;5091431;28;20401;-87
2024/01/18 02:21:40;;;;;;;5.32;3.83;;;;;;;7.44;84.59;100933.72;5090817;28;20493;-88
2024/01/18 02:24:30;;;;;;;4.95;3.85;;;;;;;7.55;84.31;100945.72;5073376;28;20031;-87
2024/01/18 02:26:58;;;;;;;5.22;3.53;;;;;;;7.60;84.29;100952.94;5074266;28;20094;-87
2024/01/18 02:29:25;;;;;;;5.40;3.80;;;;;;;7.69;84.38;100966.59;5086619;28;20036;-88
2024/01/18 02:31:52;;;;;;;5.50;3.97;;;;;;;7.76;84.34;100974.00;5082659;28;20080;-88
2024/01/18 02:34:18;;;;;;;5.65;4.15;;;;;;;7.39;84.99;100913.38;5090664;28;20130;-86
2024/01/18 02:36:44;;;;;;;5.18;3.80;;;;;;;7.49;84.40;100918.44;5072616;28;20489;-87
2024/01/18 02:39:12;;;;;;;5.10;3.78;;;;;;;7.24;84.53;100877.78;5088084;28;20047;-89
2024/01/18 02:41:38;;;;;;;5.05;3.78;;;;;;;7.88;83.99;100985.25;5087467;28;20036;-87
2024/01/18 02:44:04;;;;;;;4.68;3.45;;;;;;;7.87;83.93;100969.53;5082053;28;20040;-86
2024/01/18 02:46:33;;;;;;;4.95;3.55;;;;;;;8.06;84.24;101006.38;5088269;28;20036;-87
2024/01/18 02:48:59;;;;;;;4.93;3.78;;;;;;;7.70;84.24;100942.38;5089280;28;20028;-87
2024/01/18 02:51:25;;;;;;;5.53;3.88;;;;;;;7.91;84.37;100976.75;5104259;28;20032;-86
2024/01/18 02:53:51;;;;;;;4.55;3.35;;;;;;;7.73;83.91;100951.31;5090591;28;20111;-86
2024/01/18 02:56:19;;;;;;;6.07;3.80;;;;;;;7.85;84.65;100960.72;5088869;28;20135;-88
2024/01/18 02:58:45;;;;;;;5.18;3.80;;;;;;;7.80;83.90;100957.81;5087262;28;20044;-88
2024/01/18 03:01:11;;;;;;;4.65;3.35;;;;;;;7.43;84.71;100876.44;5086904;28;20047;-88
2024/01/18 03:03:37;;;;;;;6.72;4.60;;;;;;;7.88;83.80;100953.16;5089331;28;20566;-88
2024/01/18 03:06:03;;;;;;;5.72;3.90;;;;;;;7.80;84.56;100943.94;5079472;28;20490;-87
2024/01/18 03:08:28;;;;;;;5.00;3.65;;;;;;;7.91;83.54;100964.63;5091664;28;20035;-88
2024/01/18 03:10:54;;;;;;;5.50;3.80;;;;;;;8.11;82.92;100983.31;5088834;28;20028;-87
2024/01/18 03:13:20;;;;;;;6.28;4.28;;;;;;;7.86;83.49;100939.13;5062018;28;20133;-87
2024/01/18 03:15:45;;;;;;;5.68;4.00;;;;;;;8.07;83.54;100969.19;5089234;28;20067;-87
2024/01/18 03:18:11;;;;;;;5.55;3.63;;;;;;;7.99;83.97;100951.25;5084802;28;20174;-87
2024/01/18 03:20:37;;;;;;;5.13;3.85;;;;;;;7.69;84.14;100897.31;5083591;28;20122;-86
2024/01/18 03:23:03;;;;;;;6.07;3.75;;;;;;;7.33;84.39;100841.16;5070363;28;20074;-87
2024/01/18 03:25:29;;;;;;;6.05;3.83;;;;;;;8.04;83.49;100958.56;5087911;28;20559;-88
2024/01/18 03:27:55;;;;;;;5.90;3.80;;;;;;;7.65;83.58;100886.59;5103380;28;20032;-87
2024/01/18 03:30:21;;;;;;;5.65;4.00;;;;;;;7.98;83.56;100941.66;5088714;28;20035;-86
2024/01/18 03:32:47;;;;;;;6.20;4.07;;;;;;;7.91;83.83;100932.53;5072598;28;20051;-85
2024/01/18 03:35:13;;;;;;;4.38;3.70;;;;;;;7.72;83.98;100897.50;5071022;28;20024;-86
2024/01/18 03:37:39;;;;;;;5.35;3.72;;;;;;;7.83;83.92;100916.44;5088801;28;20036;-88
2024/01/18 03:40:09;;;;;;;5.28;3.65;;;;;;;7.83;84.10;100915.53;5088166;28;20486;-87
2024/01/18 03:42:39;;;;;;;5.53;3.70;;;;;;;8.08;83.57;100946.66;5085745;28;20035;-87
2024/01/18 03:45:04;;;;;;;6.00;3.88;;;;;;;8.00;83.87;100935.78;5081757;28;20115;-87
2024/01/18 03:47:30;;;;;;;4.90;3.75;;;;;;;7.88;84.12;100920.25;5101093;28;20114;-87
2024/01/18 03:49:57;;;;;;;5.47;3.92;;;;;;;7.71;83.85;100887.03;5066030;28;20036;-88
2024/01/18 03:52:23;;;;;;;5.72;4.00;;;;;;;7.68;83.69;100881.59;5088100;28;20020;-89
2024/01/18 03:54:48;;;;;;;4.93;3.58;;;;;;;7.86;83.22;100913.13;5089920;28;20043;-88
2024/01/18 03:57:17;;;;;;;4.93;3.63;;;;;;;7.75;84.12;100897.72;5088883;28;20497;-87
2024/01/18 03:59:46;;;;;;;4.72;3.70;;;;;;;7.91;83.63;100917.84;5071068;28;20465;-88
2024/01/18 04:02:13;;;;;;;5.68;4.03;;;;;;;7.97;84.40;100930.34;5088765;28;20073;-88
2024/01/18 04:04:39;;;;;;;5.28;3.80;;;;;;;7.91;83.61;100916.94;5065642;28;20032;-88
2024/01/18 04:07:05;;;;;;;4.40;3.50;;;;;;;8.06;84.06;100943.06;5085426;28;20504;-88
2024/01/18 04:09:31;;;;;;;5.50;3.53;;;;;;;7.65;84.81;100878.81;5081917;28;20035;-88
2024/01/18 04:11:57;;;;;;;5.03;3.58;;;;;;;7.47;84.46;100843.00;5088297;28;20032;-89
2024/01/18 04:14:23;;;;;;;5.65;3.80;;;;;;;7.30;83.61;100815.88;5085724;28;20463;-88
2024/01/18 04:16:49;;;;;;;5.20;3.83;;;;;;;7.60;83.52;100865.50;5089034;28;20031;-87
2024/01/18 04:19:14;;;;;;;6.03;3.85;;;;;;;8.05;83.75;100936.97;5085156;28;20032;-87
2024/01/18 04:21:40;;;;;;;6.10;4.03;;;;;;;7.79;84.60;100897.91;5101381;28;20036;-88
2024/01/18 04:24:06;;;;;;;5.60;3.92;;;;;;;7.91;83.50;100912.63;5088786;28;20032;-86
2024/01/18 04:26:34;;;;;;;5.20;3.88;;;;;;;8.06;84.39;100937.88;5087136;28;20454;-88
2024/01/18 04:29:00;;;;;;;5.03;3.80;;;;;;;7.79;84.39;100892.72;5088185;28;20111;-90
2024/01/18 04:31:26;;;;;;;5.38;3.88;;;;;;;7.74;83.24;100882.91;5079949;28;20040;-87
2024/01/18 04:33:55;;;;;;;5.60;3.75;;;;;;;8.05;84.34;100938.69;5087705;28;20452;-87
2024/01/18 04:36:20;;;;;;;5.28;3.83;;;;;;;7.84;84.42;100902.63;5086419;28;20046;-87
2024/01/18 04:38:46;;;;;;;5.78;3.85;;;;;;;7.58;84.15;100853.19;5084041;28;20122;-87
2024/01/18 04:41:12;;;;;;;5.20;3.65;;;;;;;7.92;83.36;100911.84;5087654;28;20115;-88
2024/01/18 04:43:38;;;;;;;4.82;3.40;;;;;;;7.98;83.75;100921.78;5089354;28;20075;-87
2024/01/18 04:46:04;;;;;;;5.47;3.75;;;;;;;7.57;84.27;100860.09;5067769;28;20505;-87
2024/01/18 04:48:31;;;;;;;;;;;;;;;8.07;83.61;100935.38;5071790;28;20032;-87
2024/01/18 04:50:57;;;;;;;5.20;3.63;;;;;;;7.46;83.82;100841.19;5103107;28;19916;-86
2024/01/18 04:53:23;;;;;;;6.25;4.00;;;;;;;7.72;84.54;100881.00;5086258;28;20120;-86
2024/01/18 04:55:50;;;;;;;4.97;3.75;;;;;;;7.82;83.47;100888.63;5089315;28;20119;-86
2024/01/18 04:58:17;;;;;;;5.13;3.50;;;;;;;8.10;83.65;100932.06;5083605;28;20028;-86
2024/01/18 05:00:42;;;;;;;;;;;;;;;8.10;83.86;100926.88;5090711;28;20040;-87
2024/01/18 05:03:08;;;;;;;5.07;3.50;;;;;;;8.03;83.64;100916.88;5074458;28;19974;-86
2024/01/18 05:05:40;;;;;;;6.88;4.00;;;;;;;8.01;84.73;100921.97;5090144;28;20028;-89
2024/01/18 05:08:07;;;;;;;5.95;4.22;;;;;;;7.73;84.11;100873.31;5077518;28;20131;-88
2024/01/18 05:10:33;;;;;;;5.53;4.07;;;;;;;8.00;83.85;100907.16;5087056;28;20520;-87
2024/01/18 05:12:59;;;;;;;5.78;3.95;;;;;;;7.93;83.20;100886.75;5071171;28;20024;-87
2024/01/18 05:15:25;;;;;;;5.72;3.78;;;;;;;8.13;83.19;100921.88;5089911;28;20105;-85
2024/01/18 05:17:51;;;;;;;5.35;3.80;;;;;;;7.88;84.01;100883.84;5086614;28;20038;-87
2024/01/18 05:20:17;;;;;;;4.68;3.50;;;;;;;7.43;83.66;100802.00;5086054;28;20064;-86
2024/01/18 05:22:43;;;;;;;6.97;4.32;;;;;;;8.07;84.35;100916.28;5085599;28;20085;-86
2024/01/18 05:25:09;;;;;;;6.22;3.63;;;;;;;8.09;83.80;100914.69;5086431;28;20028;-87
2024/01/18 05:27:37;;;;;;;5.70;4.30;;;;;;;7.90;83.16;100881.34;5082595;28;20030;-87
2024/01/18 05:30:07;;;;;;;7.13;4.03;;;;;;;7.93;83.58;100878.94;5075185;28;20024;-86
2024/01/18 05:32:33;;;;;;;5.38;3.55;;;;;;;8.08;83.83;100911.16;5087858;28;20374;-89
2024/01/18 05:35:01;;;;;;;6.47;4.05;;;;;;;7.97;83.88;100885.25;5087571;28;20035;-85
2024/01/18 05:37:26;;;;;;;6.63;4.22;;;;;;;7.92;83.43;100875.44;5073745;28;20044;-85
2024/01/18 05:39:53;;;;;;;6.60;4.50;;;;;;;8.05;83.30;100890.16;5083314;28;20111;-84
2024/01/18 05:42:18;;;;;;;5.25;3.85;;;;;;;8.00;83.73;100873.38;5086938;28;20085;-84
2024/01/18 05:44:46;;;;;;;6.53;4.28;;;;;;;8.06;83.13;100878.03;5086895;28;20032;-84
2024/01/18 05:47:12;;;;;;;6.03;4.25;;;;;;;8.07;82.79;100890.28;5087045;28;20028;-85
2024/01/18 05:49:38;;;;;;;5.20;3.97;;;;;;;7.87;83.33;100861.25;5088818;28;20414;-85
2024/01/18 05:52:04;;;;;;;7.40;4.30;;;;;;;8.06;83.24;100880.66;5092848;28;20039;-85
2024/01/18 05:54:29;;;;;;;7.10;4.43;;;;;;;8.07;83.61;100883.34;5083500;28;20501;-86
2024/01/18 05:56:59;;;;;;;5.88;4.15;;;;;;;7.87;83.28;100844.72;5084667;28;20072;-86
2024/01/18 05:59:25;;;;;;;5.35;3.97;;;;;;;7.95;83.95;100854.84;5096608;27;20029;-86
2024/01/18 06:01:51;;;;;;;6.45;4.28;;;;;;;7.95;83.42;100846.13;5098451;27;20032;-86
2024/01/18 06:04:17;;;;;;;7.05;4.38;;;;;;;7.54;83.56;100781.94;5088541;28;20036;-86
2024/01/18 06:06:43;;;;;;;6.50;4.32;;;;;;;8.13;83.04;100878.56;5085721;28;20438;-86
2024/01/18 06:09:09;;;;;;;6.07;4.38;;;;;;;7.91;83.76;100841.53;5083835;28;20039;-86
2024/01/18 06:11:36;;;;;;;6.70;4.15;;;;;;;8.06;83.28;100862.44;5088411;28;20474;-86
2024/01/18 06:14:01;;;;;;;6.07;3.90;;;;;;;7.62;82.79;100778.16;5065185;28;20070;-86
2024/01/18 06:16:27;;;;;;;5.68;4.05;;;;;;;8.18;82.78;100871.06;5085791;28;20099;-87
2024/01/18 06:18:53;;;;;;;6.82;4.32;;;;;;;8.07;83.33;100849.53;5086286;28;20032;-84
2024/01/18 06:21:21;;;;;;;6.40;4.35;;;;;;;8.12;82.99;100847.25;5085007;28;20119;-87
2024/01/18 06:23:46;;;;;;;7.28;4.85;;;;;;;8.10;83.99;100857.53;5086401;28;20039;-85
2024/01/18 06:26:12;;;;;;;5.78;4.30;;;;;;;7.96;84.25;100837.56;5087673;28;20028;-84
2024/01/18 06:28:38;;;;;;;5.93;4.32;;;;;;;8.06;83.05;100849.44;5088115;28;20040;-85
2024/01/18 06:31:08;;;;;;;7.90;4.63;;;;;;;8.15;83.29;100855.25;5100840;28;20569;-86
2024/01/18 06:33:34;;;;;;;6.47;4.43;;;;;;;7.59;84.24;100764.94;5083446;28;20032;-86
2024/01/18 06:36:00;;;;;;;7.28;4.30;;;;;;;7.89;83.37;100812.81;5077257;28;20527;-87
2024/01/18 06:38:26;;;;;;;6.30;4.35;;;;;;;7.79;84.02;100794.84;5089581;28;20093;-85
2024/01/18 06:40:51;;;;;;;6.47;4.32;;;;;;;7.70;83.42;100770.84;5086657;28;20097;-87
2024/01/18 06:43:17;;;;;;;7.00;4.35;;;;;;;7.94;83.65;100813.16;5070796;28;20036;-86
2024/01/18 06:45:43;;;;;;;5.72;3.88;;;;;;;7.83;83.83;100790.72;5087705;28;20093;-86
2024/01/18 06:48:09;;;;;;;;;;;;;;;8.20;82.87;100845.16;5087141;28;20043;-85
2024/01/18 06:50:35;;;;;;;5.70;4.07;;;;;;;7.80;83.02;100772.34;5100700;28;19920;-85
2024/01/18 06:53:03;;;;;;;6.20;4.43;;;;;;;7.79;83.63;100780.94;5088703;28;20038;-87
2024/01/18 06:55:32;;;;;;;6.20;4.38;;;;;;;8.05;83.46;100822.53;5085848;28;20052;-86
2024/01/18 06:58:02;;;;;;;6.22;4.25;;;;;;;7.75;84.21;100769.47;5087780;28;20537;-84
2024/01/18 07:00:27;;;;;;;7.78;4.80;;;;;;;7.83;84.27;100801.13;5081811;28;20134;-84
2024/01/18 07:02:53;;;;;;;5.47;4.00;;;;;;;7.98;83.93;100822.03;5087681;28;20054;-86
2024/01/18 07:05:20;;;;;;;6.32;4.15;;;;;;;8.18;83.51;100842.44;5088134;28;20028;-84
2024/01/18 07:07:46;;;;;;;6.88;4.60;;;;;;;7.93;84.30;100808.72;5061259;28;20430;-83
2024/01/18 07:10:13;;;;;;;6.55;4.20;;;;;;;7.95;84.55;100808.03;5083645;28;20103;-85
2024/01/18 07:12:39;;;;;;;6.22;4.35;;;;;;;7.92;84.43;100799.16;5096168;28;20037;-85
2024/01/18 07:15:07;;;;;;;6.07;4.30;;;;;;;8.11;84.00;100835.94;5083829;28;20034;-85
2024/01/18 07:17:33;;;;;;;5.95;4.25;;;;;;;8.10;83.75;100834.13;5084228;28;20040;-85
2024/01/18 07:19:59;;;;;;;5.75;4.18;;;;;;;8.02;83.78;100803.22;5084855;28;20016;-84
2024/01/18 07:22:27;;;;;;;5.47;4.28;;;;;;;8.14;84.35;100830.03;5086879;28;20032;-86
2024/01/18 07:24:53;;;;;;;6.38;4.38;;;;;;;7.82;84.23;100765.56;5086504;28;20496;-84
2024/01/18 07:27:19;;;;;;;6.43;4.25;;;;;;;8.03;84.35;100805.03;5086234;28;20032;-86
2024/01/18 07:29:45;;;;;;;5.57;3.80;;;;;;;8.07;84.35;100814.84;5083592;28;20025;-84
2024/01/18 07:32:11;;;;;;;7.03;4.53;;;;;;;7.66;84.70;100748.97;5088721;28;20493;-85
2024/01/18 07:34:39;;;;;;;6.68;4.35;;;;;;;8.09;84.44;100803.72;5075881;28;20043;-84
2024/01/18 07:37:04;;;;;;;7.32;4.53;;;;;;;8.00;84.10;100784.94;5085397;28;20494;-85
2024/01/18 07:39:30;;;;;;;5.88;4.25;;;;;;;8.09;83.75;100808.94;5083540;28;20024;-85
2024/01/18 07:41:56;;;;;;;6.28;4.32;;;;;;;8.20;83.73;100811.34;5080647;28;20775;-85
2024/01/18 07:44:22;;;;;;;5.55;3.85;;;;;;;7.92;84.40;100761.03;5076738;28;20027;-85
2024/01/18 07:46:48;;;;;;;6.47;4.25;;;;;;;8.20;83.80;100794.00;5087046;28;20544;-84
2024/01/18 07:49:14;;;;;;;5.53;3.95;;;;;;;8.11;83.09;100785.63;5085444;28;20031;-85
2024/01/18 07:52:05;;;;;;;6.38;3.83;;;;;;;7.80;83.16;100722.97;5084320;28;20033;-86
2024/01/18 07:54:36;;;;;;;5.85;4.07;;;;;;;7.96;83.98;100751.75;5097716;28;20697;-85
2024/01/18 07:57:02;;;;;;;5.43;3.88;;;;;;;7.98;83.40;100750.16;5085502;28;20028;-85
2024/01/18 07:59:50;;;;;;;6.88;4.47;;;;;;;8.31;83.06;100800.78;5082092;28;20086;-84
2024/01/18 08:02:18;;;;;;;5.50;4.00;;;;;;;8.07;84.00;100760.22;5085890;28;20032;-83
2024/01/18 08:08:42;;;;;;;6.78;4.50;;;;;;;8.14;84.24;100775.41;5089668;28;20467;-85
2024/01/18 08:11:54;;;;;;;6.43;4.15;;;;;;;8.29;84.23;100796.28;5090320;28;20040;-85
2024/01/18 08:14:20;;;;;;;6.68;4.13;;;;;;;8.13;84.28;100771.91;5088912;28;20032;-85
2024/01/18 08:16:46;;;;;;;5.30;3.80;;;;;;;7.84;84.54;100719.75;5091092;28;20043;-86
2024/01/18 08:19:12;;;;;;;5.50;3.90;;;;;;;8.03;84.87;100753.94;5087703;28;20149;-85
2024/01/18 08:21:46;;;;;;;6.32;4.30;;;;;;;8.10;84.77;100761.31;5089178;28;20020;-87
2024/01/18 08:24:12;;;;;;;5.47;3.83;;;;;;;8.24;84.71;100787.31;5088379;28;20120;-86
2024/01/18 08:26:38;;;;;;;5.63;3.88;;;;;;;8.20;85.07;100773.19;5078050;28;20051;-86
2024/01/18 08:29:03;;;;;;;7.63;4.68;;;;;;;8.31;85.58;100794.69;5087422;28;20035;-86
2024/01/18 08:31:30;;;;;;;6.70;4.68;;;;;;;8.08;85.36;100742.09;5088903;28;20035;-85
2024/01/18 08:33:56;;;;;;;6.80;4.70;;;;;;;8.05;85.28;100733.22;5087516;28;20047;-86
2024/01/18 08:36:22;;;;;;;6.85;4.53;;;;;;;8.21;84.34;100763.69;5089760;28;20482;-86
2024/01/18 08:38:48;;;;;;;6.00;4.05;;;;;;;8.28;84.63;100758.09;5089773;28;20055;-86
2024/01/18 08:41:13;;;;;;;6.13;4.38;;;;;;;8.12;84.54;100731.09;5087625;28;20029;-84
2024/01/18 08:43:39;;;;;;;6.10;4.25;;;;;;;8.13;85.19;100734.63;5088689;28;20036;-84
2024/01/18 08:46:08;;;;;;;5.63;4.20;;;;;;;8.08;85.49;100720.41;5087959;28;20028;-84
2024/01/18 08:48:36;;;;;;;7.05;4.03;;;;;;;8.19;85.18;100732.41;5088448;28;20028;-84
2024/01/18 08:51:02;;;;;;;6.75;4.45;;;;;;;8.25;85.09;100744.88;5088326;28;20579;-84
2024/01/18 08:53:28;;;;;;;6.28;4.50;;;;;;;8.26;84.49;100744.09;5088040;28;20043;-83
2024/01/18 08:55:54;;;;;;;6.03;4.13;;;;;;;8.38;84.92;100762.16;5089417;28;20076;-84
2024/01/18 08:58:19;;;;;;;6.13;4.10;;;;;;;8.26;84.92;100725.88;5087966;28;20044;-84
2024/01/18 09:00:45;;;;;;;6.20;4.25;;;;;;;8.13;85.46;100714.69;5088073;28;20039;-84
2024/01/18 09:03:10;;;;;;;6.32;4.25;;;;;;;8.10;85.73;100701.47;5089545;28;20035;-85
2024/01/18 09:05:36;;;;;;;6.57;4.35;;;;;;;8.31;85.37;100733.16;5089838;28;20036;-84
2024/01/18 09:08:02;;;;;;;6.50;4.40;;;;;;;8.21;85.39;100703.88;5088257;28;20089;-84
2024/01/18 09:10:28;;;;;;;6.00;4.38;;;;;;;8.20;85.15;100691.69;5089372;28;20024;-85
2024/01/18 09:12:53;;;;;;;6.45;4.53;;;;;;;8.40;85.16;100705.91;5091927;28;20032;-85
2024/01/18 09:15:19;;;;;;;7.50;4.60;;;;;;;8.13;85.43;100648.78;5090455;28;20031;-87
2024/01/18 09:17:44;;;;;;;6.95;4.38;;;;;;;8.30;85.91;100679.34;5092201;28;20047;-85
2024/01/18 09:20:10;;;;;;;7.22;4.70;;;;;;;7.92;85.64;100614.56;5092920;28;20493;-86
2024/01/18 09:22:36;;;;;;;7.38;4.75;;;;;;;8.23;85.68;100678.84;5093532;28;20044;-86
2024/01/18 09:25:02;;;;;;;6.70;4.32;;;;;;;8.05;85.89;100643.09;5087878;28;20032;-86
2024/01/18 09:27:28;;;;;;;;;;;;;;;8.42;85.51;100704.31;5092353;28;20060;-86
2024/01/18 09:29:53;;;;;;;5.78;3.85;;;;;;;8.39;85.81;100702.41;5091547;28;20802;-86
2024/01/18 09:32:20;;;;;;;6.13;4.32;;;;;;;8.35;85.47;100696.09;5093409;28;20393;-85
2024/01/18 09:34:45;;;;;;;6.82;4.30;;;;;;;8.26;85.26;100666.03;5093141;28;20401;-85
2024/01/18 09:37:11;;;;;;;7.20;4.75;;;;;;;8.20;85.54;100663.06;5092346;28;20039;-85
2024/01/18 09:39:37;;;;;;;6.40;4.57;;;;;;;8.24;85.83;100659.84;5091819;28;20073;-86
2024/01/18 09:42:07;;;;;;;6.75;4.38;;;;;;;8.14;85.56;100634.97;5092377;28;20028;-86
2024/01/18 09:44:34;;;;;;;6.95;4.57;;;;;;;8.01;85.42;100614.22;5074618;28;20066;-86
2024/01/18 09:47:03;;;;;;;7.40;4.57;;;;;;;8.44;85.67;100687.09;5087202;28;20024;-86
2024/01/18 09:49:33;;;;;;;7.07;4.57;;;;;;;8.14;85.52;100637.56;5088123;28;20055;-86
2024/01/18 09:52:00;;;;;;;6.07;4.70;;;;;;;8.16;85.70;100626.44;5090508;28;20024;-85
2024/01/18 09:54:26;;;;;;;7.00;4.38;;;;;;;8.32;85.26;100645.63;5091164;28;20020;-85
2024/01/18 09:57:00;;;;;;;7.22;5.15;;;;;;;8.49;85.74;100667.50;5091285;28;20038;-86
2024/01/18 09:59:27;;;;;;;9.65;5.85;;;;;;;8.49;85.78;100667.50;5090283;28;20024;-85
2024/01/18 10:01:54;;;;;;;8.07;5.18;;;;;;;8.28;85.68;100633.22;5090411;28;20020;-86
2024/01/18 10:04:20;;;;;;;6.80;4.72;;;;;;;8.29;85.59;100628.09;5091422;28;20398;-85
2024/01/18 10:06:46;;;;;;;7.53;5.00;;;;;;;8.28;85.77;100622.81;5091165;28;20024;-86
2024/01/18 10:09:14;;;;;;;6.72;4.47;;;;;;;8.45;85.83;100649.88;5091390;28;20467;-86
2024/01/18 10:11:46;;;;;;;8.35;5.57;;;;;;;8.42;85.54;100636.69;5092378;28;20086;-85
2024/01/18 10:14:12;;;;;;;7.90;5.30;;;;;;;8.36;85.55;100613.78;5090764;28;20028;-86
2024/01/18 10:16:40;;;;;;;8.00;5.43;;;;;;;8.50;85.68;100633.72;5074155;28;20049;-85
2024/01/18 10:19:07;;;;;;;8.38;5.30;;;;;;;8.59;85.46;100635.09;5090871;28;20111;-86
2024/01/18 10:21:34;;;;;;;9.38;5.70;;;;;;;8.46;85.24;100605.72;5091043;28;20020;-86
2024/01/18 10:24:01;;;;;;;8.02;5.43;;;;;;;8.61;85.02;100620.47;5072807;28;20093;-85
2024/01/18 10:26:31;;;;;;;8.20;5.55;;;;;;;8.34;85.15;100563.34;5091200;28;20093;-85
2024/01/18 10:28:57;;;;;;;9.57;6.07;;;;;;;8.62;85.53;100607.53;5089648;28;20114;-85
2024/01/18 10:31:23;;;;;;;;;;;;;;;8.63;85.65;100598.03;5089500;28;20028;-85
2024/01/18 10:33:48;;;;;;;10.73;6.13;;;;;;;8.55;85.99;100572.44;5106948;28;19923;-85
2024/01/18 10:36:14;;;;;;;9.95;6.43;;;;;;;8.56;86.63;100576.84;5091887;28;20161;-85
2024/01/18 10:38:41;;;;;;;9.55;6.00;;;;;;;8.63;86.68;100583.28;5091230;28;20066;-86
2024/01/18 10:41:10;;;;;;;11.57;6.07;;;;;;;8.66;86.02;100582.59;5089872;28;20032;-86
2024/01/18 10:43:37;;;;;;;10.02;6.25;;;;;;;8.33;86.48;100519.91;5078864;28;20040;-86
2024/01/18 10:46:04;;;;;;;9.02;6.05;;;;;;;8.69;86.28;100559.34;5075324;28;20656;-85
2024/01/18 10:48:31;;;;;;;9.32;6.10;;;;;;;8.33;86.68;100502.59;5089753;28;20036;-85
2024/01/18 10:50:57;;;;;;;10.10;6.72;;;;;;;8.52;86.38;100534.94;5091341;28;20035;-85
2024/01/18 10:53:29;;;;;;;9.98;6.10;;;;;;;8.51;86.56;100531.44;5091659;28;20498;-85
2024/01/18 10:55:56;;;;;;;10.52;5.63;;;;;;;8.74;86.86;100564.00;5086462;28;20048;-86
2024/01/18 10:58:21;;;;;;;;;;;;;;;8.80;85.08;100547.81;5086830;28;20035;-86
2024/01/18 11:00:47;;;;;;;9.70;5.95;;;;;;;8.36;86.11;100478.47;5090376;28;19912;-85
2024/01/18 11:03:16;;;;;;;9.23;6.05;;;;;;;8.61;86.78;100521.56;5090026;28;20093;-85
2024/01/18 11:05:45;;;;;;;7.90;5.60;;;;;;;8.77;86.19;100535.53;5090747;28;20115;-85
2024/01/18 11:08:15;;;;;;;8.63;5.45;;;;;;;8.82;85.36;100530.59;5089053;28;20421;-85
2024/01/18 11:10:41;;;;;;;7.85;5.30;;;;;;;8.45;85.13;100468.63;5073469;28;20397;-85
2024/01/18 11:13:08;;;;;;;8.20;5.40;;;;;;;8.43;85.37;100461.56;5084903;28;20025;-85
2024/01/18 11:15:38;;;;;;;8.40;5.28;;;;;;;8.47;85.19;100463.53;5094048;27;20113;-85
2024/01/18 11:18:11;;;;;;;10.02;5.50;;;;;;;8.63;85.32;100481.78;5087779;28;20043;-86
2024/01/18 11:21:27;;;;;;;9.27;5.93;;;;;;;8.88;85.18;100522.25;5084146;28;20048;-86
2024/01/18 11:23:45;;;;;;;9.95;5.88;;;;;;;8.77;85.82;100503.41;5087478;28;20028;-85
2024/01/18 11:26:23;;;;;;;9.63;5.78;;;;;;;8.48;86.00;100458.38;5087975;28;20523;-84
2024/01/18 11:28:49;;;;;;;7.80;5.57;;;;;;;8.70;85.34;100483.94;5102182;28;20032;-85
2024/01/18 11:31:15;;;;;;;7.30;5.13;;;;;;;8.86;84.89;100503.03;5086673;28;20028;-86
2024/01/18 11:33:41;;;;;;;7.43;4.97;;;;;;;8.78;84.92;100473.94;5087705;28;20032;-85
2024/01/18 11:36:11;;;;;;;7.50;5.03;;;;;;;8.66;84.81;100452.47;5089742;28;20055;-86
2024/01/18 11:38:46;;;;;;;8.32;5.55;;;;;;;8.69;84.92;100452.63;5089929;28;20439;-88